Time;durP1;ratioP1;P1;durP2;ratioP2;P2;SDS_P1;SDS_P2;PMS_P1;PMS_P2;Temp;Humidity;BMP_temperature;BMP_pressure;BME280_temperature;BME280_humidity;BME280_pressure;Samples;Min_cycle;Max_cycle;Signal;HPM_P1;HPM_P2
2022/12/07 05:46:29;;;;;;;;;;;;;;;3.68;100.00;97986.00;5457626;23;19974;-65
2022/12/07 05:48:55;;;;;;;;;;;;;;;5.08;100.00;97982.03;4879241;29;19958;-66
2022/12/07 05:51:20;;;;;;;;;;;;;;;4.71;91.77;97970.81;4876403;29;19916;-66
2022/12/07 05:53:45;;;;;;;;;;;;;;;4.39;82.74;97975.81;4870605;29;20019;-68
2022/12/07 05:56:10;;;;;;;;;;;;;;;3.95;78.02;97976.13;4870454;29;19920;-65
2022/12/07 06:01:19;;;;;;;;;;;;;;;3.35;78.38;97975.34;4859294;29;19922;-66
2022/12/07 06:03:45;;;;;;;;;;;;;;;3.11;79.10;97974.63;4858501;29;19916;-67
2022/12/07 06:06:10;;;;;;;;;;;;;;;2.91;79.71;97975.47;4867713;29;19928;-65
2022/12/07 06:08:35;;;;;;;;;;;;;;;2.80;80.36;97977.66;4871789;29;20360;-66
2022/12/07 06:13:44;;;;;;;;;;;;;;;2.59;81.34;97980.22;4851760;29;19935;-65
2022/12/07 06:16:10;;;;;;;;;;;;;;;2.54;81.69;97973.53;4854757;29;19928;-66
2022/12/07 06:18:35;;;;;;;;;;;;;;;2.45;82.22;97966.97;4871765;29;19923;-65
2022/12/07 06:21:00;;;;;;;;;;;;;;;2.41;82.27;97969.72;4859963;29;19911;-65
2022/12/07 06:23:25;;;;;;;;;;;;;;;2.40;82.57;97973.22;4857674;29;19935;-65
2022/12/07 06:25:50;;;;;;;;;;;;;;;2.33;82.07;97977.78;4858702;29;19928;-65
2022/12/07 06:28:16;;;;;;;;;;;;;;;2.32;82.31;97970.94;4858928;29;19926;-66
2022/12/07 06:30:41;;;;;;;;;;;;;;;2.25;82.67;97972.94;4856829;29;19916;-65
2022/12/07 06:33:06;;;;;;;;;;;;;;;2.26;82.67;97977.19;4858928;29;19920;-66
2022/12/07 06:35:32;;;;;;;;;;;;;;;2.28;82.53;97979.72;4854572;29;19923;-66
2022/12/07 06:37:57;;;;;;;;;;;;;;;2.30;82.42;97978.75;4853529;29;19916;-66
2022/12/07 06:40:22;;;;;;;;;;;;;;;2.31;82.80;97985.63;4857826;29;19916;-65
2022/12/07 06:42:48;;;;;;;;;;;;;;;2.30;82.87;97993.44;4859205;29;19919;-66
2022/12/07 06:45:13;;;;;;;;;;;;;;;2.31;82.43;97992.56;4856752;29;19920;-65
2022/12/07 06:47:38;;;;;;;;;;;;;;;2.28;82.54;97992.69;4855470;29;19918;-66
2022/12/07 06:50:03;;;;;;;;;;;;;;;2.27;82.98;97981.47;4860781;29;19923;-66
2022/12/07 06:52:29;;;;;;;;;;;;;;;2.30;82.80;97988.25;4857688;29;19916;-64
2022/12/07 06:54:55;;;;;;;;;;;;;;;2.30;82.72;97980.50;4858888;29;19911;-64
2022/12/07 06:57:20;;;;;;;;;;;;;;;2.32;82.60;97987.31;4859143;29;19935;-68
2022/12/07 06:59:45;;;;;;;;;;;;;;;2.36;82.76;97985.44;4865924;29;19916;-65
2022/12/07 07:02:10;;;;;;;;;;;;;;;2.34;83.54;97990.69;4852366;29;19946;-65
2022/12/07 07:04:35;;;;;;;;;;;;;;;2.37;82.82;97979.34;4856374;29;19987;-65
2022/12/07 07:07:01;;;;;;;;;;;;;;;2.34;82.08;97987.25;4859538;29;19919;-65
2022/12/07 07:09:26;;;;;;;;;;;;;;;2.36;82.52;97983.69;4860900;29;19943;-65
2022/12/07 07:11:52;;;;;;;;;;;;;;;2.32;82.61;97982.13;4855088;29;19920;-66
2022/12/07 07:14:18;;;;;;;;;;;;;;;2.37;82.54;97987.13;4862180;29;20372;-65
2022/12/07 07:16:44;;;;;;;;;;;;;;;2.37;82.55;97989.72;4861416;29;20376;-65
2022/12/07 07:19:09;;;;;;;;;;;;;;;2.38;82.26;97986.25;4860264;29;19923;-64
2022/12/07 07:21:34;;;;;;;;;;;;;;;2.41;82.26;97987.84;4862237;29;20387;-65
2022/12/07 07:23:59;;;;;;;;;;;;;;;2.57;88.96;97989.78;4858469;29;20404;-65
2022/12/07 07:26:25;;;;;;;;;;;;;;;3.41;100.00;97989.81;4859841;29;20031;-64
2022/12/07 07:28:50;;;;;;;;;;;;;;;4.94;100.00;97990.50;4860060;29;19999;-68
2022/12/07 07:31:15;;;;;;;;;;;;;;;5.58;100.00;97984.66;4860842;29;19949;-67
2022/12/07 07:33:40;;;;;;;;;;;;;;;4.96;87.99;97986.94;4859897;29;19955;-67
2022/12/07 07:36:06;;;;;;;;;;;;;;;4.49;79.76;97984.03;4861740;29;19960;-67
2022/12/07 07:38:31;;;;;;;;;;;;;;;4.21;78.16;97987.06;4861926;29;20052;-66
2022/12/07 07:40:56;;;;;;;;;;;;;;;3.99;77.11;97982.88;4862141;29;20287;-64
2022/12/07 07:43:21;;;;;;;;;;;;;;;3.66;78.25;97990.41;4861789;29;20292;-64
2022/12/07 07:45:47;;;;;;;;;;;;;;;3.62;79.15;97990.63;4860858;29;19928;-64
2022/12/07 07:48:12;;;;;;;;;;;;;;;3.52;79.50;97992.75;4860972;29;20387;-65
2022/12/07 07:50:37;;;;;;;;;;;;;;;3.35;78.86;97997.84;4861603;29;19988;-64
2022/12/07 07:53:02;;;;;;;;;;;;;;;3.29;79.82;97997.19;4860535;29;19923;-65
2022/12/07 07:55:28;;;;;;;;;;;;;;;3.22;79.42;97994.91;4861355;29;19916;-63
2022/12/07 07:57:53;;;;;;;;;;;;;;;3.17;79.90;97996.88;4860428;29;20269;-64
2022/12/07 08:00:18;;;;;;;;;;;;;;;3.14;80.23;97994.41;4858657;29;20003;-65
2022/12/07 08:02:44;;;;;;;;;;;;;;;3.12;80.17;97991.88;4861597;29;20265;-65
2022/12/07 08:05:10;;;;;;;;;;;;;;;3.13;80.25;98000.47;4859689;29;19920;-65
2022/12/07 08:07:35;;;;;;;;;;;;;;;3.10;80.63;97996.28;4860745;29;20431;-65
2022/12/07 08:10:00;;;;;;;;;;;;;;;3.09;81.21;98002.34;4861197;29;19938;-64
2022/12/07 08:12:25;;;;;;;;;;;;;;;3.14;81.08;98004.78;4861615;29;20396;-63
2022/12/07 08:14:51;;;;;;;;;;;;;;;3.22;80.90;98000.09;4858566;29;20445;-64
2022/12/07 08:17:16;;;;;;;;;;;;;;;3.26;80.40;98001.66;4860780;29;20368;-63
2022/12/07 08:19:41;;;;;;;;;;;;;;;3.29;80.45;98004.13;4861002;29;20015;-63
2022/12/07 08:22:07;;;;;;;;;;;;;;;3.26;80.21;98004.25;4874729;29;20388;-64
2022/12/07 08:24:35;;;;;;;;;;;;;;;3.29;79.98;98006.72;4859210;29;20352;-64
2022/12/07 08:27:00;;;;;;;;;;;;;;;3.34;79.47;98009.97;4861334;29;20029;-64
2022/12/07 08:29:25;;;;;;;;;;;;;;;3.42;80.09;98015.66;4860696;29;20076;-64
2022/12/07 08:31:50;;;;;;;;;;;;;;;3.45;79.44;98012.94;4860420;29;20034;-63
2022/12/07 08:34:16;;;;;;;;;;;;;;;3.46;79.46;98014.59;4858606;29;20030;-63
2022/12/07 08:36:41;;;;;;;;;;;;;;;3.45;79.16;98020.72;4860933;29;20079;-64
2022/12/07 08:39:06;;;;;;;;;;;;;;;3.49;79.67;98014.47;4858831;29;19920;-64
2022/12/07 08:41:31;;;;;;;;;;;;;;;3.44;79.70;98023.34;4860942;29;19959;-64
2022/12/07 08:43:56;;;;;;;;;;;;;;;3.39;78.97;98013.19;4860053;29;19924;-64
2022/12/07 08:46:25;;;;;;;;;;;;;;;3.41;79.45;98013.97;4859666;29;19927;-63
2022/12/07 08:48:55;;;;;;;;;;;;;;;3.33;79.35;98009.09;4858858;29;19912;-64
2022/12/07 08:51:20;;;;;;;;;;;;;;;3.33;78.88;97997.88;4875119;29;19915;-64
2022/12/07 08:53:45;;;;;;;;;;;;;;;3.37;79.42;98002.03;4858351;29;20384;-64
2022/12/07 08:56:11;;;;;;;;;;;;;;;3.46;79.71;98000.81;4860132;29;20284;-64
2022/12/07 08:58:36;;;;;;;;;;;;;;;3.53;79.28;98005.66;4859537;29;20505;-64
2022/12/07 09:01:01;;;;;;;;;;;;;;;3.60;79.13;98005.41;4841825;29;20273;-64
2022/12/07 09:03:26;;;;;;;;;;;;;;;3.72;78.38;98010.06;4859522;29;19924;-64
2022/12/07 09:05:52;;;;;;;;;;;;;;;3.69;78.61;98010.19;4857669;29;19975;-65
2022/12/07 09:08:17;;;;;;;;;;;;;;;3.74;78.62;98016.00;4874710;29;19920;-65
2022/12/07 09:10:43;;;;;;;;;;;;;;;3.69;79.31;98011.03;4857380;29;19955;-64
2022/12/07 09:13:08;;;;;;;;;;;;;;;3.67;78.74;98014.59;4860089;29;19916;-64
2022/12/07 09:15:33;;;;;;;;;;;;;;;3.66;78.40;98013.75;4857480;29;20018;-64
2022/12/07 09:17:58;;;;;;;;;;;;;;;3.72;78.80;98016.09;4859370;29;20030;-64
2022/12/07 09:20:24;;;;;;;;;;;;;;;3.71;78.25;98023.91;4853084;29;20292;-64
2022/12/07 09:22:49;;;;;;;;;;;;;;;3.74;78.92;98027.22;4841822;29;19977;-64
2022/12/07 09:25:14;;;;;;;;;;;;;;;3.79;79.03;98027.03;4847655;29;19920;-64
2022/12/07 09:27:39;;;;;;;;;;;;;;;3.71;78.99;98029.09;4858306;29;20365;-63
2022/12/07 09:30:05;;;;;;;;;;;;;;;3.58;79.46;98023.63;4858543;29;19984;-63
2022/12/07 09:32:30;;;;;;;;;;;;;;;3.55;80.01;98024.59;4860255;29;19912;-62
2022/12/07 09:34:55;;;;;;;;;;;;;;;3.54;80.26;98025.50;4857224;29;20368;-64
2022/12/07 09:37:20;;;;;;;;;;;;;;;3.51;81.33;98017.84;4858871;29;20380;-64
2022/12/07 09:39:46;;;;;;;;;;;;;;;3.49;80.94;98022.25;4859125;29;20280;-64
2022/12/07 09:42:13;;;;;;;;;;;;;;;3.55;81.15;98019.41;4874544;29;20280;-64
2022/12/07 09:44:39;;;;;;;;;;;;;;;3.51;81.46;98017.84;4855613;29;20019;-64
2022/12/07 09:47:04;;;;;;;;;;;;;;;3.54;81.71;98016.88;4857556;29;20007;-64
2022/12/07 09:49:30;;;;;;;;;;;;;;;3.50;82.02;98016.16;4858515;29;19911;-63
2022/12/07 09:51:59;;;;;;;;;;;;;;;3.46;82.93;98018.97;4856526;29;19923;-64
2022/12/07 09:54:25;;;;;;;;;;;;;;;3.48;83.04;98011.97;4871397;29;19977;-64
2022/12/07 09:56:50;;;;;;;;;;;;;;;3.47;82.64;98015.44;4856646;29;19924;-64
2022/12/07 09:59:18;;;;;;;;;;;;;;;3.49;82.19;98006.69;4859893;29;19998;-64
2022/12/07 10:01:43;;;;;;;;;;;;;;;3.50;82.17;98010.97;4857813;29;19923;-65
2022/12/07 10:04:13;;;;;;;;;;;;;;;3.54;81.79;98009.09;4871303;29;19916;-65
2022/12/07 10:06:38;;;;;;;;;;;;;;;3.55;80.91;97998.66;4856559;29;19927;-66
2022/12/07 10:09:12;;;;;;;;;;;;;;;3.63;81.22;97997.47;4858382;29;20345;-65
2022/12/07 10:11:56;;;;;;;;;;;;;;;3.69;80.66;98008.44;4859606;29;19919;-65
2022/12/07 10:14:21;;;;;;;;;;;;;;;3.76;80.43;97998.63;4856498;29;19916;-65
2022/12/07 10:16:47;;;;;;;;;;;;;;;3.75;79.90;98012.50;4859413;29;20341;-64
2022/12/07 10:19:24;;;;;;;;;;;;;;;3.79;79.99;98006.28;4858252;29;20377;-64
2022/12/07 10:22:22;;;;;;;;;;;;;;;3.84;80.31;98004.31;4858654;29;19920;-64
2022/12/07 10:24:47;;;;;;;;;;;;;;;3.87;80.50;97999.00;4856795;29;19920;-64
2022/12/07 10:27:31;;;;;;;;;;;;;;;3.88;79.69;97995.47;4856682;29;19938;-64
2022/12/07 10:29:57;;;;;;;;;;;;;;;3.92;80.21;97994.44;4857128;29;19912;-64
2022/12/07 10:32:28;;;;;;;;;;;;;;;3.91;80.13;97995.34;4855661;29;20404;-64
2022/12/07 10:35:13;;;;;;;;;;;;;;;3.92;79.32;97991.84;4855892;29;19948;-64
2022/12/07 10:37:40;;;;;;;;;;;;;;;3.87;79.65;97988.59;4867585;29;19956;-64
2022/12/07 10:40:11;;;;;;;;;;;;;;;3.91;79.32;97984.97;4859152;29;19975;-64
2022/12/07 10:42:36;;;;;;;;;;;;;;;4.01;79.66;97982.78;4872290;29;19916;-65
2022/12/07 10:45:07;;;;;;;;;;;;;;;4.05;78.47;97977.38;4858432;29;19927;-65
2022/12/07 10:47:46;;;;;;;;;;;;;;;4.17;78.45;97972.56;4867621;29;19991;-65
2022/12/07 10:50:14;;;;;;;;;;;;;;;4.25;78.87;97973.03;4859733;29;19980;-65
2022/12/07 10:52:43;;;;;;;;;;;;;;;4.23;77.98;97973.13;4860530;29;20012;-64
2022/12/07 10:55:09;;;;;;;;;;;;;;;4.27;78.34;97973.81;4840862;29;19920;-64
2022/12/07 10:57:46;;;;;;;;;;;;;;;4.27;78.40;97976.41;4859277;29;20396;-65
2022/12/07 11:00:22;;;;;;;;;;;;;;;4.23;78.59;97980.91;4853536;29;19916;-66
2022/12/07 11:03:06;;;;;;;;;;;;;;;4.27;78.48;97981.59;4872224;29;19972;-65
2022/12/07 11:05:37;;;;;;;;;;;;;;;4.27;78.45;97976.41;4858893;29;19920;-66
2022/12/07 11:08:18;;;;;;;;;;;;;;;4.20;78.14;97970.66;4859933;29;19916;-67
2022/12/07 11:10:45;;;;;;;;;;;;;;;4.18;78.17;97969.03;4860342;29;20443;-67
2022/12/07 11:13:31;;;;;;;;;;;;;;;4.14;79.28;97965.75;4859106;29;19916;-67
2022/12/07 11:15:56;;;;;;;;;;;;;;;4.29;87.12;97964.19;4869465;29;19916;-68
2022/12/07 11:18:24;;;;;;;;;;;;;;;4.31;83.33;97962.38;4861717;29;19920;-67
2022/12/07 11:20:52;;;;;;;;;;;;;;;4.30;80.15;97960.66;4860511;29;19923;-67
2022/12/07 11:23:29;;;;;;;;;;;;;;;4.31;79.90;97957.19;4859750;29;19916;-68
2022/12/07 11:26:01;;;;;;;;;;;;;;;4.56;88.21;97959.44;4861487;29;19924;-64
2022/12/07 11:28:29;;;;;;;;;;;;;;;4.57;82.54;97950.72;4860939;29;19980;-64
2022/12/07 11:31:01;;;;;;;;;;;;;;;4.60;79.77;97947.13;4861755;29;19920;-65
2022/12/07 11:33:33;;;;;;;;;;;;;;;4.64;79.00;97948.66;4859887;29;20333;-64
2022/12/07 11:36:04;;;;;;;;;;;;;;;4.72;78.61;97946.56;4860209;29;19950;-64
2022/12/07 11:38:50;;;;;;;;;;;;;;;4.80;77.77;97949.59;4861068;29;19919;-64
2022/12/07 11:41:15;;;;;;;;;;;;;;;4.83;77.34;97949.47;4860050;29;20345;-64
2022/12/07 11:44:19;;;;;;;;;;;;;;;4.84;76.97;97943.34;4859789;29;19920;-66
2022/12/07 11:46:47;;;;;;;;;;;;;;;4.78;76.68;97946.22;4858584;29;19920;-65
2022/12/07 11:49:23;;;;;;;;;;;;;;;4.70;76.84;97948.38;4859644;29;19912;-64
2022/12/07 11:51:48;;;;;;;;;;;;;;;4.63;76.97;97941.78;4855517;29;20261;-66
2022/12/07 11:54:15;;;;;;;;;;;;;;;4.48;77.57;97936.44;4842227;29;20400;-66
2022/12/07 11:56:40;;;;;;;;;;;;;;;4.44;78.18;97932.31;4845962;29;19928;-66
2022/12/07 11:59:10;;;;;;;;;;;;;;;4.45;78.48;97923.59;4858625;29;19919;-64
2022/12/07 12:01:38;;;;;;;;;;;;;;;4.57;78.00;97927.34;4844633;29;19912;-64
2022/12/07 12:04:09;;;;;;;;;;;;;;;4.64;77.86;97931.31;4856877;29;19916;-64
2022/12/07 12:06:37;;;;;;;;;;;;;;;4.68;77.20;97934.59;4866908;29;19915;-67
2022/12/07 12:09:08;;;;;;;;;;;;;;;4.64;76.88;97920.94;4858266;29;19923;-64
2022/12/07 12:11:33;;;;;;;;;;;;;;;4.70;77.29;97928.44;4858773;29;19964;-65
2022/12/07 12:14:07;;;;;;;;;;;;;;;4.77;77.49;97918.56;4856875;29;19916;-64
2022/12/07 12:16:44;;;;;;;;;;;;;;;4.77;77.17;97926.38;4857774;29;19916;-64
2022/12/07 12:19:18;;;;;;;;;;;;;;;4.82;76.93;97920.94;4860239;29;20062;-64
2022/12/07 12:21:43;;;;;;;;;;;;;;;4.80;76.85;97917.59;4859439;29;19919;-64
2022/12/07 12:24:13;;;;;;;;;;;;;;;4.80;76.72;97915.81;4860314;29;19915;-65
2022/12/07 12:26:38;;;;;;;;;;;;;;;4.82;77.16;97915.72;4849109;29;19935;-63
2022/12/07 12:29:04;;;;;;;;;;;;;;;4.78;77.02;97917.66;4861050;29;20292;-64
2022/12/07 12:31:36;;;;;;;;;;;;;;;4.64;77.29;97907.94;4857247;29;19920;-64
2022/12/07 12:34:02;;;;;;;;;;;;;;;4.63;77.41;97902.84;4841696;29;19916;-63
2022/12/07 12:36:47;;;;;;;;;;;;;;;4.68;77.55;97908.63;4860349;29;19916;-65
2022/12/07 12:39:16;;;;;;;;;;;;;;;4.57;77.55;97910.91;4859842;29;19916;-64
2022/12/07 12:42:05;;;;;;;;;;;;;;;4.56;77.48;97904.06;4872972;29;19916;-63
2022/12/07 12:44:29;;;;;;;;;;;;;;;4.57;77.79;97906.56;4860018;29;19964;-63
2022/12/07 12:46:55;;;;;;;;;;;;;;;4.63;77.35;97900.22;4859655;29;19999;-63
2022/12/07 12:49:21;;;;;;;;;;;;;;;4.62;77.68;97899.41;4842423;29;19944;-64
2022/12/07 12:51:49;;;;;;;;;;;;;;;4.53;77.70;97899.84;4860597;29;19916;-64
2022/12/07 12:54:15;;;;;;;;;;;;;;;4.49;77.92;97899.16;4858983;29;19912;-66
2022/12/07 12:56:42;;;;;;;;;;;;;;;4.43;78.51;97899.44;4874139;29;19971;-63
2022/12/07 12:59:43;;;;;;;;;;;;;;;4.45;78.69;97897.63;4858728;29;19927;-65
2022/12/07 13:02:21;;;;;;;;;;;;;;;4.43;78.02;97894.25;4833832;29;19916;-65
2022/12/07 13:04:52;;;;;;;;;;;;;;;4.40;79.08;97894.41;4857060;29;19915;-64
2022/12/07 13:07:36;;;;;;;;;;;;;;;4.39;78.71;97903.09;4858304;29;19938;-64
2022/12/07 13:10:03;;;;;;;;;;;;;;;4.34;78.82;97894.72;4854385;29;20384;-64
2022/12/07 13:12:28;;;;;;;;;;;;;;;4.33;78.62;97895.59;4860480;29;20419;-66
2022/12/07 13:14:54;;;;;;;;;;;;;;;4.30;79.40;97893.16;4859089;29;19916;-64
2022/12/07 13:17:32;;;;;;;;;;;;;;;4.32;79.42;97887.91;4860360;29;19913;-64
2022/12/07 13:20:01;;;;;;;;;;;;;;;4.29;79.61;97886.28;4858410;29;19916;-64
2022/12/07 13:22:29;;;;;;;;;;;;;;;4.23;79.91;97886.56;4858848;29;19916;-64
2022/12/07 13:24:57;;;;;;;;;;;;;;;4.24;80.23;97878.72;4860260;29;20304;-64
2022/12/07 13:27:24;;;;;;;;;;;;;;;4.29;80.01;97881.09;4858869;29;20444;-65
2022/12/07 13:29:49;;;;;;;;;;;;;;;4.29;79.75;97881.09;4856954;29;20296;-65
2022/12/07 13:32:24;;;;;;;;;;;;;;;4.33;79.68;97881.78;4856313;29;19916;-64
2022/12/07 13:34:49;;;;;;;;;;;;;;;4.31;79.53;97883.63;4858894;29;19916;-64
2022/12/07 13:37:21;;;;;;;;;;;;;;;4.28;79.36;97884.63;4858427;29;19927;-64
2022/12/07 13:39:47;;;;;;;;;;;;;;;4.24;79.55;97888.28;4873393;29;19998;-65
2022/12/07 13:42:24;;;;;;;;;;;;;;;4.23;79.79;97886.56;4856060;29;19953;-64
2022/12/07 13:44:49;;;;;;;;;;;;;;;4.17;79.45;97881.72;4842194;29;19922;-66
2022/12/07 13:47:16;;;;;;;;;;;;;;;4.07;79.44;97880.47;4856168;29;19924;-64
2022/12/07 13:49:47;;;;;;;;;;;;;;;4.09;80.41;97884.63;4858683;29;19948;-64
2022/12/07 13:52:13;;;;;;;;;;;;;;;4.13;80.41;97885.34;4860735;29;19916;-66
2022/12/07 13:54:43;;;;;;;;;;;;;;;4.10;80.78;97890.69;4860263;29;19955;-64
2022/12/07 13:57:08;;;;;;;;;;;;;;;4.11;80.39;97889.78;4861379;29;19920;-65
2022/12/07 13:59:34;;;;;;;;;;;;;;;4.11;80.74;97889.78;4858410;29;19912;-65
2022/12/07 14:01:59;;;;;;;;;;;;;;;4.09;80.37;97889.00;4854848;29;19920;-64
2022/12/07 14:04:29;;;;;;;;;;;;;;;4.06;80.20;97887.41;4871789;29;19943;-65
2022/12/07 14:06:54;;;;;;;;;;;;;;;4.08;80.20;97884.72;4869756;29;19928;-64
2022/12/07 14:09:22;;;;;;;;;;;;;;;4.10;80.51;97888.94;4854373;29;19980;-65
2022/12/07 14:11:47;;;;;;;;;;;;;;;4.17;80.74;97884.31;4850199;29;19916;-65
2022/12/07 14:14:22;;;;;;;;;;;;;;;4.21;80.60;97888.44;4855473;29;19916;-65
2022/12/07 14:17:01;;;;;;;;;;;;;;;4.28;80.05;97884.63;4856890;29;19920;-64
2022/12/07 14:19:43;;;;;;;;;;;;;;;4.30;79.54;97887.97;4858092;29;20391;-64
2022/12/07 14:22:08;;;;;;;;;;;;;;;4.34;79.58;97889.53;4851986;29;19920;-64
2022/12/07 14:24:41;;;;;;;;;;;;;;;4.38;79.33;97887.63;4855421;29;19923;-64
2022/12/07 14:27:14;;;;;;;;;;;;;;;4.36;79.25;97886.84;4852532;29;19923;-64
2022/12/07 14:29:40;;;;;;;;;;;;;;;4.35;79.26;97880.81;4873288;29;20002;-65
2022/12/07 14:32:20;;;;;;;;;;;;;;;4.30;79.25;97882.78;4859655;29;20007;-65
2022/12/07 14:35:04;;;;;;;;;;;;;;;4.28;79.84;97885.47;4857355;29;19923;-64
2022/12/07 14:37:29;;;;;;;;;;;;;;;4.27;79.28;97878.59;4859471;29;20649;-64
2022/12/07 14:39:54;;;;;;;;;;;;;;;4.25;78.81;97875.22;4858253;29;19912;-65
2022/12/07 14:42:20;;;;;;;;;;;;;;;4.26;78.91;97876.06;4859663;29;19912;-65
2022/12/07 14:44:45;;;;;;;;;;;;;;;4.20;78.44;97872.00;4857986;29;20007;-65
2022/12/07 14:47:10;;;;;;;;;;;;;;;4.21;78.50;97868.50;4858778;29;19920;-65
2022/12/07 14:49:35;;;;;;;;;;;;;;;4.20;78.79;97877.22;4857979;29;19919;-65
2022/12/07 14:52:01;;;;;;;;;;;;;;;4.19;78.87;97872.06;4859381;29;19927;-65
2022/12/07 14:54:26;;;;;;;;;;;;;;;4.18;78.77;97870.41;4856933;29;19924;-65
2022/12/07 14:56:51;;;;;;;;;;;;;;;4.15;78.97;97866.19;4857126;29;19923;-66
2022/12/07 14:59:17;;;;;;;;;;;;;;;4.13;79.12;97862.84;4858989;29;19912;-65
2022/12/07 15:01:42;;;;;;;;;;;;;;;4.11;79.28;97866.41;4858137;29;20284;-65
2022/12/07 15:04:07;;;;;;;;;;;;;;;4.10;79.11;97865.59;4859161;29;19966;-65
2022/12/07 15:06:32;;;;;;;;;;;;;;;4.09;79.13;97865.63;4857096;29;19963;-65
2022/12/07 15:08:57;;;;;;;;;;;;;;;4.04;79.34;97860.69;4859140;29;19959;-65
2022/12/07 15:11:23;;;;;;;;;;;;;;;4.04;79.00;97861.50;4859230;29;19920;-65
2022/12/07 15:16:32;;;;;;;;;;;;;;;3.91;79.60;97863.00;4858128;29;19923;-66
2022/12/07 15:18:57;;;;;;;;;;;;;;;3.88;80.05;97859.72;4858033;29;20135;-65
2022/12/07 15:21:22;;;;;;;;;;;;;;;3.83;79.98;97865.13;4859194;29;19912;-65
2022/12/07 15:23:47;;;;;;;;;;;;;;;3.83;79.67;97857.34;4858815;29;19920;-66
2022/12/07 15:26:13;;;;;;;;;;;;;;;3.80;79.88;97862.66;4861387;29;19972;-65
2022/12/07 15:28:38;;;;;;;;;;;;;;;3.82;80.04;97863.47;4860433;29;20343;-65
2022/12/07 15:31:04;;;;;;;;;;;;;;;3.81;80.31;97865.19;4862291;29;19935;-65
2022/12/07 15:33:29;;;;;;;;;;;;;;;3.80;80.13;97863.50;4862031;29;19912;-65
2022/12/07 15:35:54;;;;;;;;;;;;;;;3.78;79.87;97854.09;4861253;29;19940;-65
2022/12/07 15:38:19;;;;;;;;;;;;;;;3.78;80.10;97854.09;4861294;29;20300;-65
2022/12/07 15:40:47;;;;;;;;;;;;;;;3.77;79.85;97858.47;4861098;29;19975;-65
2022/12/07 15:45:59;;;;;;;;;;;;;;;3.72;80.00;97860.44;4870022;29;19962;-65
2022/12/07 15:48:24;;;;;;;;;;;;;;;3.73;80.41;97863.88;4859925;29;19955;-65
2022/12/07 15:50:49;;;;;;;;;;;;;;;3.72;80.57;97860.44;4860597;29;19919;-66
2022/12/07 15:53:14;;;;;;;;;;;;;;;3.72;80.13;97851.81;4861860;29;20010;-65
2022/12/07 15:55:40;;;;;;;;;;;;;;;3.71;79.78;97853.56;4860921;29;20038;-65
2022/12/07 15:58:05;;;;;;;;;;;;;;;3.71;80.56;97852.72;4860758;29;19987;-66
2022/12/07 16:00:30;;;;;;;;;;;;;;;3.70;80.15;97856.22;4858530;29;19916;-66
2022/12/07 16:02:55;;;;;;;;;;;;;;;3.73;80.42;97854.34;4861612;29;19919;-66
2022/12/07 16:05:21;;;;;;;;;;;;;;;3.73;80.35;97850.91;4861664;29;19912;-65
2022/12/07 16:07:47;;;;;;;;;;;;;;;3.71;80.49;97857.91;4861815;29;19916;-65
2022/12/07 16:10:12;;;;;;;;;;;;;;;3.71;80.87;97850.13;4859529;29;19920;-65
2022/12/07 16:12:37;;;;;;;;;;;;;;;3.69;80.65;97851.97;4860623;29;20349;-65
2022/12/07 16:15:02;;;;;;;;;;;;;;;3.67;81.20;97857.19;4860476;29;19955;-65
2022/12/07 16:17:27;;;;;;;;;;;;;;;3.67;81.28;97856.38;4860630;29;19985;-65
2022/12/07 16:19:53;;;;;;;;;;;;;;;3.69;81.76;97849.38;4861536;29;19919;-65
2022/12/07 16:22:18;;;;;;;;;;;;;;;3.63;81.35;97850.47;4861530;29;19916;-65
2022/12/07 16:24:43;;;;;;;;;;;;;;;3.57;82.14;97851.59;4860245;29;20436;-65
2022/12/07 16:27:09;;;;;;;;;;;;;;;3.55;83.10;97848.25;4859699;29;20497;-65
2022/12/07 16:29:34;;;;;;;;;;;;;;;3.53;83.30;97839.69;4861070;29;19916;-65
2022/12/07 16:31:59;;;;;;;;;;;;;;;3.53;83.27;97839.69;4861386;29;19916;-65
2022/12/07 16:34:24;;;;;;;;;;;;;;;3.52;83.35;97842.38;4861162;29;20338;-65
2022/12/07 16:36:49;;;;;;;;;;;;;;;3.51;83.98;97840.66;4858498;29;20318;-65
2022/12/07 16:39:15;;;;;;;;;;;;;;;3.50;83.65;97828.63;4860235;29;19923;-65
2022/12/07 16:41:40;;;;;;;;;;;;;;;3.47;83.82;97833.94;4861139;29;19920;-65
2022/12/07 16:44:06;;;;;;;;;;;;;;;3.44;83.90;97827.16;4875286;29;19912;-65
2022/12/07 16:46:32;;;;;;;;;;;;;;;3.39;83.31;97828.28;4859654;29;19927;-65
2022/12/07 16:48:57;;;;;;;;;;;;;;;3.36;83.82;97829.25;4858936;29;19919;-65
2022/12/07 16:51:22;;;;;;;;;;;;;;;3.34;83.43;97828.50;4861044;29;19912;-65
2022/12/07 16:53:48;;;;;;;;;;;;;;;3.33;83.59;97826.78;4860836;29;20289;-65
2022/12/07 16:56:14;;;;;;;;;;;;;;;3.27;84.42;97820.16;4859904;29;20285;-65
2022/12/07 16:58:39;;;;;;;;;;;;;;;3.28;84.01;97823.59;4858675;29;19958;-65
2022/12/07 17:01:15;;;;;;;;;;;;;;;3.25;84.13;97821.13;4858328;29;19991;-66
2022/12/07 17:03:40;;;;;;;;;;;;;;;3.24;83.63;97822.03;4859766;29;19912;-65
2022/12/07 17:06:15;;;;;;;;;;;;;;;3.22;84.39;97823.84;4860738;29;19915;-65
2022/12/07 17:08:40;;;;;;;;;;;;;;;3.23;84.19;97828.13;4859823;29;19920;-65
2022/12/07 17:11:09;;;;;;;;;;;;;;;3.21;84.26;97829.94;4859775;29;20292;-65
2022/12/07 17:16:18;;;;;;;;;;;;;;;3.12;83.48;97827.75;4860742;29;19923;-65
2022/12/07 17:18:44;;;;;;;;;;;;;;;3.10;84.46;97825.25;4874737;29;20292;-65
2022/12/07 17:21:09;;;;;;;;;;;;;;;3.09;83.99;97819.19;4858758;29;20324;-65
2022/12/07 17:23:34;;;;;;;;;;;;;;;3.08;84.34;97819.28;4859193;29;20304;-65
2022/12/07 17:26:03;;;;;;;;;;;;;;;3.07;84.87;97821.03;4859138;29;19919;-65
2022/12/07 17:28:29;;;;;;;;;;;;;;;3.07;84.35;97826.22;4860588;29;19915;-65
2022/12/07 17:30:54;;;;;;;;;;;;;;;3.07;84.86;97821.03;4859425;29;20307;-65
2022/12/07 17:33:20;;;;;;;;;;;;;;;3.04;84.20;97816.00;4859129;29;20308;-65
2022/12/07 17:35:45;;;;;;;;;;;;;;;3.03;84.68;97809.13;4860119;29;19970;-65
2022/12/07 17:38:10;;;;;;;;;;;;;;;2.98;84.17;97815.41;4860359;29;19918;-65
2022/12/07 17:40:35;;;;;;;;;;;;;;;2.97;83.95;97812.00;4858856;29;19916;-65
2022/12/07 17:43:00;;;;;;;;;;;;;;;2.95;84.38;97807.78;4858990;29;19920;-65
2022/12/07 17:45:26;;;;;;;;;;;;;;;2.93;84.60;97807.84;4859874;29;19968;-65
2022/12/07 17:47:51;;;;;;;;;;;;;;;2.90;84.30;97813.16;4858660;29;19927;-65
2022/12/07 17:53:09;;;;;;;;;;;;;;;2.88;84.25;97809.78;4859140;29;19960;-65
2022/12/07 17:53:11;;;;;;;;;;;;;;;2.85;84.09;97813.34;4857685;29;19920;-65
2022/12/07 17:55:36;;;;;;;;;;;;;;;2.83;84.12;97811.75;4859909;29;19947;-65
2022/12/07 17:58:01;;;;;;;;;;;;;;;2.83;84.37;97816.94;4860096;29;19958;-66
2022/12/07 18:00:26;;;;;;;;;;;;;;;2.81;84.32;97808.38;4859711;29;19916;-65
2022/12/07 18:02:52;;;;;;;;;;;;;;;2.81;84.16;97808.38;4857695;29;19920;-65
2022/12/07 18:05:17;;;;;;;;;;;;;;;2.81;84.03;97808.38;4858743;29;20040;-65
2022/12/07 18:07:42;;;;;;;;;;;;;;;2.79;83.38;97800.69;4859648;29;19948;-65
2022/12/07 18:10:08;;;;;;;;;;;;;;;2.77;83.63;97802.50;4859562;29;19916;-66
2022/12/07 18:12:33;;;;;;;;;;;;;;;2.77;83.58;97797.31;4859496;29;19912;-66
2022/12/07 18:14:58;;;;;;;;;;;;;;;2.75;83.73;97798.28;4857225;29;19920;-66
2022/12/07 18:17:24;;;;;;;;;;;;;;;2.70;83.80;97805.44;4857347;29;19915;-66
2022/12/07 18:19:49;;;;;;;;;;;;;;;2.71;83.84;97805.34;4858148;29;19919;-66
2022/12/07 18:22:14;;;;;;;;;;;;;;;2.74;84.24;97805.22;4859490;29;19941;-65
2022/12/07 18:24:39;;;;;;;;;;;;;;;2.75;84.10;97808.63;4856724;29;19916;-65
2022/12/07 18:27:05;;;;;;;;;;;;;;;2.76;84.28;97807.75;4857947;29;19920;-66
2022/12/07 18:29:30;;;;;;;;;;;;;;;2.75;84.11;97809.50;4857956;29;19964;-65
2022/12/07 18:31:55;;;;;;;;;;;;;;;2.77;84.43;97809.44;4858506;29;19919;-66
2022/12/07 18:34:21;;;;;;;;;;;;;;;2.81;83.96;97804.03;4859650;29;19919;-65
2022/12/07 18:36:46;;;;;;;;;;;;;;;2.80;83.52;97806.72;4857429;29;19992;-66
2022/12/07 18:39:11;;;;;;;;;;;;;;;2.81;84.54;97803.19;4859120;29;19912;-65
2022/12/07 18:41:37;;;;;;;;;;;;;;;2.80;83.43;97810.13;4859367;29;20006;-65
2022/12/07 18:44:02;;;;;;;;;;;;;;;2.81;83.98;97800.63;4859514;29;20358;-65
2022/12/07 18:46:28;;;;;;;;;;;;;;;2.77;84.15;97806.84;4857093;29;20317;-65
2022/12/07 18:48:55;;;;;;;;;;;;;;;2.76;83.83;97803.41;4858065;29;19916;-65
2022/12/07 18:51:21;;;;;;;;;;;;;;;2.73;84.20;97807.88;4859301;29;20348;-65
2022/12/07 18:53:46;;;;;;;;;;;;;;;2.73;84.06;97815.66;4856668;29;20007;-66
2022/12/07 18:56:12;;;;;;;;;;;;;;;2.74;83.87;97812.16;4855658;29;20004;-65
2022/12/07 18:58:37;;;;;;;;;;;;;;;2.76;84.20;97812.94;4850579;29;20011;-66